createdAt,value
2023-04-28T00:01:42.074Z,11.53
2023-04-28T00:04:09.477Z,10.87
2023-04-28T00:06:37.185Z,9.60
2023-04-28T00:09:04.199Z,10.30
2023-04-28T00:11:31.179Z,9.17
2023-04-28T00:13:58.058Z,8.80
2023-04-28T00:16:25.006Z,7.40
2023-04-28T00:18:52.018Z,8.00
2023-04-28T00:21:18.985Z,6.53
2023-04-28T00:23:45.984Z,7.60
2023-04-28T00:26:12.998Z,6.87
2023-04-28T00:28:40.001Z,7.43
2023-04-28T00:31:16.017Z,6.90
2023-04-28T00:33:44.143Z,7.43
2023-04-28T00:36:11.612Z,7.10
2023-04-28T00:38:38.681Z,7.60
2023-04-28T00:41:05.754Z,6.47
2023-04-28T00:43:32.807Z,7.53
2023-04-28T00:45:59.871Z,6.83
2023-04-28T00:48:27.677Z,7.23
2023-04-28T00:50:54.711Z,7.27
2023-04-28T00:53:21.819Z,6.63
2023-04-28T00:55:50.838Z,7.73
2023-04-28T00:58:17.715Z,7.30
2023-04-28T01:00:44.750Z,6.80
2023-04-28T01:03:12.036Z,7.40
2023-04-28T01:05:39.241Z,7.30
2023-04-28T01:08:06.279Z,6.80
2023-04-28T01:10:33.176Z,6.87
2023-04-28T01:13:00.110Z,6.60
2023-04-28T01:15:27.903Z,8.17
2023-04-28T01:17:55.978Z,8.23
2023-04-28T01:20:22.949Z,8.40
2023-04-28T01:22:55.695Z,8.80
2023-04-28T01:25:22.545Z,7.10
2023-04-28T01:27:49.502Z,6.87
2023-04-28T01:30:16.552Z,7.50
2023-04-28T01:32:43.491Z,7.13
2023-04-28T01:35:10.396Z,6.60
2023-04-28T01:37:37.217Z,7.60
2023-04-28T01:40:04.706Z,7.00
2023-04-28T01:42:31.698Z,6.90
2023-04-28T01:44:58.601Z,7.33
2023-04-28T01:47:25.704Z,6.77
2023-04-28T01:49:52.586Z,6.70
2023-04-28T01:52:22.548Z,6.90
2023-04-28T01:54:49.524Z,8.77
2023-04-28T01:57:17.709Z,8.00
2023-04-28T01:59:44.810Z,8.00
2023-04-28T02:02:12.048Z,8.77
2023-04-28T02:04:39.613Z,6.93
2023-04-28T02:07:07.163Z,8.07
2023-04-28T02:09:34.196Z,8.27
2023-04-28T02:12:02.416Z,10.13
2023-04-28T02:14:32.220Z,8.63
2023-04-28T02:16:59.689Z,8.30
2023-04-28T02:19:26.781Z,7.13
2023-04-28T02:21:53.773Z,7.80
2023-04-28T02:24:20.670Z,7.20
2023-04-28T02:26:47.708Z,7.00
2023-04-28T02:29:14.960Z,7.23
2023-04-28T02:31:41.958Z,6.63
2023-04-28T02:34:08.866Z,7.80
2023-04-28T02:36:36.053Z,7.83
2023-04-28T02:39:02.936Z,8.40
2023-04-28T02:41:31.201Z,7.80
2023-04-28T02:43:58.085Z,7.20
2023-04-28T02:46:25.039Z,6.97
2023-04-28T02:48:51.962Z,6.77
2023-04-28T02:51:18.845Z,7.13
2023-04-28T02:53:45.762Z,7.30
2023-04-28T02:56:12.640Z,7.27
2023-04-28T02:58:39.517Z,6.87
2023-04-28T03:01:06.452Z,6.00
2023-04-28T03:03:33.785Z,7.10
2023-04-28T03:06:00.820Z,7.83
2023-04-28T03:08:27.729Z,7.03
2023-04-28T03:10:54.620Z,8.17
2023-04-28T03:13:21.636Z,7.57
2023-04-28T03:15:48.577Z,8.13
2023-04-28T03:18:15.784Z,6.50
2023-04-28T03:20:42.664Z,7.20
2023-04-28T03:23:09.602Z,7.70
2023-04-28T03:25:36.449Z,7.47
2023-04-28T03:28:03.495Z,7.33
2023-04-28T03:30:30.483Z,7.20
2023-04-28T03:32:57.453Z,8.33
2023-04-28T03:35:24.426Z,9.20
2023-04-28T03:37:51.317Z,7.10
2023-04-28T03:40:18.290Z,8.53
2023-04-28T03:42:45.180Z,7.53
2023-04-28T03:45:12.084Z,8.70
2023-04-28T03:47:39.049Z,8.87
2023-04-28T03:50:07.083Z,8.80
2023-04-28T03:52:33.948Z,8.23
2023-04-28T03:55:00.881Z,9.33
2023-04-28T03:57:27.805Z,9.20
2023-04-28T03:59:54.679Z,8.87
2023-04-28T04:02:21.943Z,10.50
2023-04-28T04:04:49.279Z,8.87
2023-04-28T04:07:16.824Z,9.80
2023-04-28T04:09:43.736Z,10.47
2023-04-28T04:12:10.639Z,9.30
2023-04-28T04:14:37.525Z,10.67
2023-04-28T04:17:04.425Z,10.73
2023-04-28T04:19:31.417Z,9.93
2023-04-28T04:21:58.310Z,10.47
2023-04-28T04:24:25.618Z,9.43
2023-04-28T04:26:52.522Z,10.60
2023-04-28T04:29:19.493Z,9.73
2023-04-28T04:31:46.470Z,9.60
2023-04-28T04:34:13.584Z,9.40
2023-04-28T04:36:40.516Z,9.80
2023-04-28T04:39:07.390Z,10.33
2023-04-28T04:41:34.314Z,11.27
2023-04-28T04:44:01.168Z,12.10
2023-04-28T04:46:28.263Z,11.50
2023-04-28T04:48:55.298Z,11.07
2023-04-28T04:51:22.576Z,9.80
2023-04-28T04:53:49.475Z,9.97
2023-04-28T04:56:16.388Z,9.67
2023-04-28T04:58:46.693Z,10.77
2023-04-28T05:01:13.601Z,10.53
2023-04-28T05:03:40.842Z,10.40
2023-04-28T05:06:07.874Z,9.80
2023-04-28T05:08:34.724Z,9.80
2023-04-28T05:11:01.638Z,8.83
2023-04-28T05:13:28.525Z,10.33
2023-04-28T05:15:55.522Z,11.13
2023-04-28T05:18:22.599Z,9.50
2023-04-28T05:20:49.549Z,9.47
2023-04-28T05:23:16.786Z,9.10
2023-04-28T05:25:44.156Z,79.00
2023-04-28T05:28:11.191Z,111.53
2023-04-28T05:30:38.390Z,31.77
2023-04-28T05:33:05.395Z,27.43
2023-04-28T05:35:32.421Z,21.80
2023-04-28T05:37:59.576Z,10.93
2023-04-28T05:40:26.929Z,9.17
2023-04-28T05:42:53.874Z,8.87
2023-04-28T05:45:20.745Z,8.50
2023-04-28T05:47:47.662Z,8.80
2023-04-28T05:50:14.580Z,9.13
2023-04-28T05:52:41.461Z,8.80
2023-04-28T05:55:08.921Z,7.90
2023-04-28T05:57:45.653Z,9.23
2023-04-28T06:00:19.333Z,10.17
2023-04-28T06:02:46.386Z,9.43
2023-04-28T06:05:13.622Z,9.67
2023-04-28T06:07:40.663Z,8.30
2023-04-28T06:10:08.423Z,8.83
2023-04-28T06:12:35.334Z,9.10
2023-04-28T06:15:02.247Z,7.97
2023-04-28T06:17:31.303Z,7.40
2023-04-28T06:19:59.155Z,8.70
2023-04-28T06:22:26.424Z,7.80
2023-04-28T06:24:53.900Z,7.07
2023-04-28T06:27:20.939Z,7.93
2023-04-28T06:29:47.816Z,8.60
2023-04-28T06:32:14.833Z,8.00
2023-04-28T06:34:42.575Z,8.23
2023-04-28T06:37:09.456Z,7.20
2023-04-28T06:39:36.370Z,7.90
2023-04-28T06:42:03.305Z,7.50
2023-04-28T06:44:30.198Z,8.20
2023-04-28T06:46:57.122Z,10.07
2023-04-28T06:49:24.086Z,17.07
2023-04-28T06:51:50.962Z,11.93
2023-04-28T06:54:18.862Z,8.47
2023-04-28T06:56:46.090Z,8.00
2023-04-28T06:59:13.209Z,22.70
2023-04-28T07:01:40.208Z,14.07
2023-04-28T07:04:07.431Z,13.37
2023-04-28T07:06:34.430Z,27.10
2023-04-28T07:09:01.387Z,20.43
2023-04-28T07:11:28.336Z,12.03
2023-04-28T07:13:55.336Z,50.47
2023-04-28T07:16:22.402Z,23.00
2023-04-28T07:18:49.392Z,13.07
2023-04-28T07:21:16.272Z,9.70
2023-04-28T07:23:43.268Z,9.40
2023-04-28T07:26:10.160Z,10.30
2023-04-28T07:28:37.273Z,10.40
2023-04-28T07:31:04.214Z,12.50
2023-04-28T07:33:31.459Z,9.77
2023-04-28T07:35:58.388Z,8.87
2023-04-28T07:38:25.366Z,8.13
2023-04-28T07:43:19.388Z,9.67
2023-04-28T07:45:48.989Z,36.40
2023-04-28T07:48:16.337Z,11.20
2023-04-28T07:50:43.304Z,7.83
2023-04-28T07:53:10.226Z,28.77
2023-04-28T07:55:37.395Z,13.77
2023-04-28T07:58:04.586Z,7.80
2023-04-28T08:00:31.509Z,9.70
2023-04-28T08:02:58.689Z,11.03
2023-04-28T08:05:25.936Z,9.50
2023-04-28T08:07:53.174Z,21.47
2023-04-28T08:10:20.438Z,17.80
2023-04-28T08:12:47.635Z,7.80
2023-04-28T08:15:15.582Z,6.37
2023-04-28T08:17:43.509Z,6.87
2023-04-28T08:20:11.186Z,6.93
2023-04-28T08:22:38.536Z,6.40
2023-04-28T08:25:06.021Z,7.80
2023-04-28T08:27:34.161Z,7.23
2023-04-28T08:30:01.200Z,6.27
2023-04-28T08:32:28.424Z,11.00
2023-04-28T08:34:55.499Z,9.17
2023-04-28T08:37:22.498Z,6.50
2023-04-28T08:39:49.514Z,7.20
2023-04-28T08:42:19.056Z,5.83
2023-04-28T08:44:47.500Z,6.37
2023-04-28T08:47:15.055Z,5.60
2023-04-28T08:49:43.757Z,5.80
2023-04-28T08:52:13.532Z,5.63
2023-04-28T08:54:41.676Z,6.20
2023-04-28T08:57:11.883Z,6.50
2023-04-28T08:59:41.175Z,5.60
2023-04-28T09:02:09.675Z,5.20
2023-04-28T09:04:37.083Z,5.50
2023-04-28T09:07:04.276Z,5.50
2023-04-28T09:09:34.744Z,5.43
2023-04-28T09:12:05.067Z,7.30
2023-04-28T09:14:37.257Z,5.93
2023-04-28T09:17:14.401Z,5.97
2023-04-28T09:19:44.658Z,6.00
2023-04-28T09:22:25.508Z,12.33
2023-04-28T09:24:55.230Z,9.00
2023-04-28T09:27:28.584Z,6.10
2023-04-28T09:29:55.723Z,5.87
2023-04-28T09:32:24.267Z,5.77
2023-04-28T09:34:54.220Z,5.67
2023-04-28T09:37:32.210Z,5.17
2023-04-28T09:40:09.949Z,5.20
2023-04-28T09:42:45.124Z,5.27
2023-04-28T09:45:14.572Z,5.17
2023-04-28T09:47:46.233Z,5.70
2023-04-28T09:50:17.639Z,5.00
2023-04-28T09:52:49.517Z,4.90
2023-04-28T09:55:17.731Z,5.60
2023-04-28T09:57:49.407Z,5.30
2023-04-28T10:00:17.642Z,4.97
2023-04-28T10:02:45.561Z,5.37
2023-04-28T10:05:13.947Z,5.50
2023-04-28T10:07:41.547Z,5.37
2023-04-28T10:10:09.060Z,5.90
2023-04-28T10:12:38.625Z,9.07
2023-04-28T10:15:08.372Z,10.63
2023-04-28T10:17:36.698Z,4.00
2023-04-28T10:20:05.431Z,4.37
2023-04-28T10:23:29.223Z,5.00
2023-04-28T10:25:59.836Z,4.30
2023-04-28T10:28:27.719Z,5.30
2023-04-28T10:31:12.842Z,5.47
2023-04-28T10:33:41.442Z,5.40
2023-04-28T10:36:08.976Z,4.17
2023-04-28T10:38:36.984Z,4.73
2023-04-28T10:41:04.461Z,4.47
2023-04-28T10:43:39.703Z,5.03
2023-04-28T10:46:11.397Z,4.43
2023-04-28T10:48:47.717Z,4.23
2023-04-28T10:51:24.346Z,3.90
2023-04-28T10:53:52.344Z,6.90
2023-04-28T10:56:25.259Z,4.33
2023-04-28T10:58:59.937Z,4.00
2023-04-28T11:01:34.687Z,4.50
2023-04-28T11:04:17.909Z,4.10
2023-04-28T11:06:47.008Z,3.90
2023-04-28T11:09:19.570Z,4.40
2023-04-28T11:12:05.965Z,4.13
2023-04-28T11:14:35.971Z,4.83
2023-04-28T11:17:13.343Z,4.87
2023-04-28T11:19:46.152Z,4.97
2023-04-28T11:22:21.758Z,4.60
2023-04-28T11:24:59.695Z,4.40
2023-04-28T11:27:28.722Z,3.63
2023-04-28T11:29:56.148Z,4.80
2023-04-28T11:32:36.143Z,4.90
2023-04-28T11:35:09.701Z,18.00
2023-04-28T11:37:36.800Z,5.17
2023-04-28T11:40:14.197Z,5.47
2023-04-28T11:42:48.927Z,4.33
2023-04-28T11:45:15.855Z,4.57
2023-04-28T11:47:42.871Z,4.30
2023-04-28T11:50:09.954Z,4.67
2023-04-28T11:52:37.411Z,4.70
2023-04-28T11:55:04.927Z,4.33
2023-04-28T11:57:31.985Z,5.80
2023-04-28T12:00:22.101Z,4.90
2023-04-28T12:02:49.450Z,6.20
2023-04-28T12:05:16.741Z,5.37
2023-04-28T12:07:45.229Z,5.63
2023-04-28T12:10:13.820Z,5.40
2023-04-28T12:12:51.010Z,5.13
2023-04-28T12:15:20.809Z,4.47
2023-04-28T12:17:49.153Z,6.10
2023-04-28T12:20:37.188Z,5.00
2023-04-28T12:23:04.493Z,4.83
2023-04-28T12:25:31.575Z,5.07
2023-04-28T12:28:04.525Z,4.90
2023-04-28T12:30:34.445Z,5.40
2023-04-28T12:33:01.758Z,5.10
2023-04-28T12:35:29.852Z,4.53
2023-04-28T12:37:58.605Z,4.37
2023-04-28T12:40:26.029Z,5.13
2023-04-28T12:42:53.166Z,4.93
2023-04-28T12:45:20.073Z,5.50
2023-04-28T12:47:47.992Z,5.43
2023-04-28T12:50:15.045Z,4.87
2023-04-28T12:52:41.986Z,4.93
2023-04-28T12:55:09.530Z,5.73
2023-04-28T12:57:38.989Z,4.63
2023-04-28T13:00:08.312Z,4.30
2023-04-28T13:02:35.677Z,5.00
2023-04-28T13:05:03.090Z,4.90
2023-04-28T13:07:30.444Z,4.00
2023-04-28T13:09:58.321Z,5.00
2023-04-28T13:12:26.129Z,5.03
2023-04-28T13:14:53.267Z,4.50
2023-04-28T13:17:20.341Z,5.60
2023-04-28T13:19:47.761Z,4.17
2023-04-28T13:22:16.027Z,4.27
2023-04-28T13:24:43.282Z,4.37
2023-04-28T13:27:10.640Z,4.83
2023-04-28T13:29:37.883Z,4.60
2023-04-28T13:32:05.884Z,4.17
2023-04-28T13:34:33.589Z,4.13
2023-04-28T13:37:00.580Z,5.10
2023-04-28T13:39:27.597Z,4.03
2023-04-28T13:41:54.552Z,3.73
2023-04-28T13:44:21.490Z,4.30
2023-04-28T13:46:48.581Z,4.90
2023-04-28T13:49:15.707Z,4.80
2023-04-28T13:51:42.756Z,4.70
2023-04-28T13:54:11.399Z,4.87
2023-04-28T13:56:38.564Z,4.73
2023-04-28T13:59:05.466Z,4.97
2023-04-28T14:01:32.421Z,4.80
2023-04-28T14:03:59.483Z,5.10
2023-04-28T14:06:27.810Z,4.20
2023-04-28T14:08:54.774Z,4.77
2023-04-28T14:11:22.684Z,4.50
2023-04-28T14:13:49.605Z,5.77
2023-04-28T14:16:16.570Z,4.43
2023-04-28T14:18:43.632Z,4.63
2023-04-28T14:21:10.635Z,4.80
2023-04-28T14:23:37.861Z,5.07
2023-04-28T14:26:05.028Z,4.70
2023-04-28T14:28:31.960Z,4.53
2023-04-28T14:31:03.865Z,4.97
2023-04-28T14:33:30.750Z,4.60
2023-04-28T14:35:57.672Z,4.27
2023-04-28T14:38:24.549Z,4.80
2023-04-28T14:40:51.556Z,4.67
2023-04-28T14:43:18.466Z,4.33
2023-04-28T14:45:45.339Z,5.70
2023-04-28T14:48:14.251Z,5.30
2023-04-28T14:50:43.268Z,4.50
2023-04-28T14:53:10.115Z,4.20
2023-04-28T14:55:37.033Z,5.50
2023-04-28T14:58:05.898Z,4.93
2023-04-28T15:00:32.821Z,5.30
2023-04-28T15:02:59.846Z,4.40
2023-04-28T15:05:27.291Z,4.60
2023-04-28T15:07:54.131Z,4.67
2023-04-28T15:10:21.237Z,3.90
2023-04-28T15:12:49.032Z,4.77
2023-04-28T15:15:15.956Z,4.23
2023-04-28T15:17:43.654Z,4.17
2023-04-28T15:20:10.998Z,4.83
2023-04-28T15:22:38.117Z,6.40
2023-04-28T15:25:05.568Z,25.03
2023-04-28T15:27:32.671Z,8.60
2023-04-28T15:29:59.546Z,4.93
2023-04-28T15:32:28.467Z,5.10
2023-04-28T15:34:56.767Z,4.83
2023-04-28T15:37:43.441Z,5.03
2023-04-28T15:40:13.957Z,6.00
2023-04-28T15:42:48.921Z,4.83
2023-04-28T15:45:18.362Z,4.30
2023-04-28T15:47:49.426Z,41.23
2023-04-28T15:50:18.731Z,16.23
2023-04-28T15:52:46.455Z,5.47
2023-04-28T15:55:16.210Z,4.80
2023-04-28T15:57:43.551Z,4.97
2023-04-28T16:00:12.177Z,5.10
2023-04-28T16:02:39.571Z,5.03
2023-04-28T16:05:07.304Z,5.50
2023-04-28T16:07:44.306Z,5.07
2023-04-28T16:10:13.886Z,5.00
2023-04-28T16:12:42.382Z,4.03
2023-04-28T16:15:12.438Z,4.70
2023-04-28T16:17:40.645Z,5.17
2023-04-28T16:20:09.699Z,4.90
2023-04-28T16:22:38.795Z,5.40
2023-04-28T16:25:07.008Z,5.10
2023-04-28T16:27:35.592Z,5.83
2023-04-28T16:30:03.289Z,24.17
2023-04-28T16:32:30.657Z,15.73
2023-04-28T16:34:58.416Z,6.23
2023-04-28T16:37:26.107Z,5.70
2023-04-28T16:39:53.111Z,4.97
2023-04-28T16:42:22.781Z,5.10
2023-04-28T16:44:52.512Z,4.77
2023-04-28T16:47:20.900Z,5.03
2023-04-28T16:49:48.438Z,5.37
2023-04-28T16:52:16.595Z,5.13
2023-04-28T16:54:43.891Z,6.23
2023-04-28T16:57:11.011Z,5.07
2023-04-28T16:59:37.955Z,5.90
2023-04-28T17:02:05.005Z,6.90
2023-04-28T17:04:32.316Z,6.90
2023-04-28T17:06:59.918Z,6.07
2023-04-28T17:09:27.470Z,6.50
2023-04-28T17:11:54.909Z,7.20
2023-04-28T17:14:22.072Z,7.50
2023-04-28T17:16:49.078Z,6.67
2023-04-28T17:19:16.699Z,7.27
2023-04-28T17:21:43.729Z,7.07
2023-04-28T17:24:10.915Z,6.90
2023-04-28T17:26:37.836Z,6.87
2023-04-28T17:29:04.933Z,7.80
2023-04-28T17:31:32.031Z,6.90
2023-04-28T17:34:00.441Z,6.50
2023-04-28T17:36:28.506Z,8.37
2023-04-28T17:38:56.111Z,9.30
2023-04-28T17:41:23.154Z,9.27
2023-04-28T17:43:51.850Z,11.10
2023-04-28T17:46:19.029Z,11.10
2023-04-28T17:48:46.182Z,10.30
2023-04-28T17:51:13.125Z,11.73
2023-04-28T17:53:40.094Z,10.80
2023-04-28T17:56:08.162Z,10.70
2023-04-28T17:58:36.260Z,12.20
2023-04-28T18:01:05.025Z,10.77
2023-04-28T18:03:34.285Z,9.90
2023-04-28T18:06:01.480Z,11.23
2023-04-28T18:08:28.501Z,10.40
2023-04-28T18:10:56.385Z,10.13
2023-04-28T18:13:23.308Z,10.30
2023-04-28T18:15:50.398Z,9.50
2023-04-28T18:18:17.362Z,9.20
2023-04-28T18:20:44.576Z,8.53
2023-04-28T18:23:11.965Z,9.23
2023-04-28T18:25:39.187Z,9.27
2023-04-28T18:28:07.961Z,7.93
2023-04-28T18:30:38.035Z,8.07
2023-04-28T18:33:09.406Z,8.23
2023-04-28T18:35:37.223Z,8.30
2023-04-28T18:38:05.192Z,8.37
2023-04-28T18:40:34.155Z,8.50
2023-04-28T18:43:02.296Z,9.37
2023-04-28T18:45:35.441Z,10.50
2023-04-28T18:48:04.001Z,9.90
2023-04-28T18:50:32.412Z,11.10
2023-04-28T18:53:04.220Z,10.03
2023-04-28T18:55:33.532Z,10.83
2023-04-28T18:58:02.156Z,13.20
2023-04-28T19:00:30.035Z,12.57
2023-04-28T19:02:57.038Z,11.53
2023-04-28T19:05:24.235Z,12.77
2023-04-28T19:07:51.171Z,14.10
2023-04-28T19:10:18.197Z,13.33
2023-04-28T19:12:45.178Z,14.60
2023-04-28T19:15:12.536Z,14.27
2023-04-28T19:17:39.636Z,13.13
2023-04-28T19:20:07.733Z,13.30
2023-04-28T19:22:44.373Z,13.10
2023-04-28T19:25:12.293Z,13.17
2023-04-28T19:27:41.153Z,13.77
2023-04-28T19:30:11.272Z,14.03
2023-04-28T19:32:41.873Z,11.60
2023-04-28T19:35:09.514Z,12.77
2023-04-28T19:37:36.462Z,12.37
2023-04-28T19:40:07.524Z,12.37
2023-04-28T19:42:37.553Z,12.20
2023-04-28T19:45:05.206Z,13.90
2023-04-28T19:47:34.777Z,13.60
2023-04-28T19:50:02.057Z,11.70
2023-04-28T19:52:29.226Z,11.80
2023-04-28T19:54:57.184Z,15.90
2023-04-28T19:57:24.242Z,16.00
2023-04-28T19:59:51.552Z,14.40
2023-04-28T20:02:19.262Z,12.53
2023-04-28T20:04:46.904Z,11.73
2023-04-28T20:07:14.266Z,11.40
2023-04-28T20:09:41.252Z,11.43
2023-04-28T20:12:09.156Z,12.00
2023-04-28T20:14:37.192Z,11.60
2023-04-28T20:17:05.437Z,10.53
2023-04-28T20:19:32.439Z,10.20
2023-04-28T20:22:02.544Z,11.60
2023-04-28T20:24:29.513Z,11.57
2023-04-28T20:26:56.461Z,11.03
2023-04-28T20:29:23.605Z,10.60
2023-04-28T20:31:50.781Z,11.40
2023-04-28T20:34:18.080Z,10.70
2023-04-28T20:36:45.017Z,11.77
2023-04-28T20:39:12.314Z,12.50
2023-04-28T20:41:43.258Z,11.43
2023-04-28T20:44:10.207Z,10.37
2023-04-28T20:46:37.140Z,12.80
2023-04-28T20:49:04.517Z,16.37
2023-04-28T20:51:36.056Z,12.73
2023-04-28T20:54:04.319Z,11.27
2023-04-28T20:56:31.229Z,10.67
2023-04-28T20:58:58.166Z,12.40
2023-04-28T21:01:25.196Z,12.67
2023-04-28T21:03:52.375Z,12.13
2023-04-28T21:06:19.545Z,12.17
2023-04-28T21:08:46.445Z,12.20
2023-04-28T21:11:14.791Z,12.47
2023-04-28T21:13:43.082Z,10.70
2023-04-28T21:16:17.029Z,11.60
2023-04-28T21:18:47.181Z,11.07
2023-04-28T21:21:14.439Z,11.83
2023-04-28T21:23:42.760Z,12.10
2023-04-28T21:26:10.330Z,12.07
2023-04-28T21:28:37.791Z,14.13
2023-04-28T21:31:04.925Z,13.30
2023-04-28T21:33:32.995Z,15.50
2023-04-28T21:36:09.119Z,17.57
2023-04-28T21:38:37.248Z,15.80
2023-04-28T21:41:04.261Z,15.03
2023-04-28T21:43:31.146Z,15.00
2023-04-28T21:45:58.119Z,16.00
2023-04-28T21:48:24.992Z,14.27
2023-04-28T21:50:51.919Z,14.17
2023-04-28T21:53:18.787Z,14.43
2023-04-28T21:55:45.730Z,14.60
2023-04-28T21:58:12.648Z,12.70
2023-04-28T22:00:43.613Z,14.70
2023-04-28T22:03:11.286Z,15.10
2023-04-28T22:05:40.411Z,12.80
2023-04-28T22:08:07.596Z,12.70
2023-04-28T22:10:35.228Z,11.50
2023-04-28T22:13:02.466Z,12.10
2023-04-28T22:15:29.398Z,11.63
2023-04-28T22:17:56.477Z,11.40
2023-04-28T22:20:23.596Z,11.97
2023-04-28T22:22:51.232Z,11.83
2023-04-28T22:25:18.322Z,12.30
2023-04-28T22:27:45.260Z,12.33
2023-04-28T22:30:12.867Z,12.10
2023-04-28T22:32:44.615Z,12.83
2023-04-28T22:35:12.649Z,12.13
2023-04-28T22:37:40.102Z,11.00
2023-04-28T22:40:08.438Z,10.20
2023-04-28T22:42:40.601Z,11.07
2023-04-28T22:45:09.985Z,11.70
2023-04-28T22:47:38.555Z,10.40
2023-04-28T22:50:07.969Z,10.77
2023-04-28T22:52:35.313Z,11.33
2023-04-28T22:55:02.388Z,11.33
2023-04-28T22:57:29.333Z,10.50
2023-04-28T22:59:56.313Z,10.90
2023-04-28T23:02:23.536Z,10.90
2023-04-28T23:04:50.823Z,11.00
2023-04-28T23:07:17.961Z,11.23
2023-04-28T23:09:44.805Z,12.27
2023-04-28T23:12:11.755Z,11.93
2023-04-28T23:14:38.692Z,11.90
2023-04-28T23:17:05.637Z,12.33
2023-04-28T23:19:32.547Z,12.20
2023-04-28T23:21:59.502Z,12.10
2023-04-28T23:24:27.298Z,11.77
2023-04-28T23:26:54.490Z,10.80
2023-04-28T23:29:21.655Z,10.50
2023-04-28T23:31:54.617Z,11.50
2023-04-28T23:34:22.596Z,11.80
2023-04-28T23:36:49.837Z,11.73
2023-04-28T23:39:16.892Z,11.90
2023-04-28T23:41:44.054Z,13.43
2023-04-28T23:44:11.011Z,11.50
2023-04-28T23:46:38.042Z,12.27
2023-04-28T23:49:04.996Z,11.83
2023-04-28T23:51:32.382Z,10.77
2023-04-28T23:53:59.403Z,10.33
2023-04-28T23:56:26.760Z,11.43
2023-04-28T23:58:53.882Z,11.10
